createdAt,value
2022-10-04T00:00:35.822Z,93240.69
2022-10-04T00:02:18.509Z,93243.88
2022-10-04T00:03:51.374Z,93240.41
2022-10-04T00:05:23.359Z,93240.69
2022-10-04T00:06:58.409Z,93243.38
2022-10-04T00:08:32.999Z,93239.91
2022-10-04T00:10:08.586Z,93241.78
2022-10-04T00:11:43.661Z,93245.84
2022-10-04T00:13:17.390Z,93243.16
2022-10-04T00:14:49.149Z,93238.09
2022-10-04T00:16:21.873Z,93243.47
2022-10-04T00:18:00.249Z,93238.09
2022-10-04T00:19:38.319Z,93240.09
2022-10-04T00:21:10.068Z,93245.25
2022-10-04T00:22:41.803Z,93244.75
2022-10-04T00:24:18.866Z,93242.66
2022-10-04T00:26:03.383Z,93246.44
2022-10-04T00:27:35.433Z,93249.13
2022-10-04T00:29:26.458Z,93244.84
2022-10-04T00:31:08.441Z,93250.22
2022-10-04T00:32:40.450Z,93244.84
2022-10-04T00:34:12.257Z,93244.84
2022-10-04T00:35:44.025Z,93241.38
2022-10-04T00:37:16.396Z,93247.25
2022-10-04T00:39:01.812Z,93250.44
2022-10-04T00:40:34.351Z,93243.66
2022-10-04T00:42:09.695Z,93236.09
2022-10-04T00:43:42.757Z,93237.69
2022-10-04T00:45:37.193Z,93247.34
2022-10-04T00:47:19.837Z,93245.97
2022-10-04T00:48:51.377Z,93245.66
2022-10-04T00:50:36.601Z,93241.91
2022-10-04T00:52:11.899Z,93234.94
2022-10-04T00:54:01.726Z,93238.69
2022-10-04T00:55:53.854Z,93237.63
2022-10-04T00:57:31.626Z,93232.81
2022-10-04T00:59:11.174Z,93236.91
2022-10-04T01:00:42.712Z,93233.41
2022-10-04T01:02:18.111Z,93232.09
2022-10-04T01:03:51.051Z,93228.94
2022-10-04T01:05:27.496Z,93224.16
2022-10-04T01:06:59.750Z,93224.94
2022-10-04T01:08:33.319Z,93221.75
2022-10-04T01:10:07.714Z,93228.72
2022-10-04T01:11:41.926Z,93224.94
2022-10-04T01:13:14.751Z,93228.22
2022-10-04T01:14:50.974Z,93229.59
2022-10-04T01:16:23.250Z,93234.78
2022-10-04T01:18:21.135Z,93223.53
2022-10-04T01:19:53.690Z,93232.69
2022-10-04T01:21:27.358Z,93224.94
2022-10-04T01:22:59.236Z,93226.53
2022-10-04T01:24:34.954Z,93223.03
2022-10-04T01:26:31.919Z,93230.81
2022-10-04T01:28:13.280Z,93228.41
2022-10-04T01:30:00.756Z,93227.31
2022-10-04T01:31:36.899Z,93228.41
2022-10-04T01:33:16.845Z,93223.84
2022-10-04T01:37:39.476Z,93234.28
2022-10-04T01:39:11.126Z,93224.63
2022-10-04T01:40:55.386Z,93230.50
2022-10-04T01:42:28.902Z,93222.44
2022-10-04T01:44:00.970Z,93223.44
2022-10-04T01:45:39.884Z,93226.13
2022-10-04T01:47:20.045Z,93224.22
2022-10-04T01:48:51.993Z,93220.75
2022-10-04T01:50:31.224Z,93219.66
2022-10-04T01:52:05.407Z,93215.88
2022-10-04T01:53:45.186Z,93217.97
2022-10-04T01:55:55.418Z,93217.06
2022-10-04T02:03:25.752Z,93211.00
2022-10-04T02:04:58.374Z,93214.00
2022-10-04T02:06:30.516Z,93209.41
2022-10-04T02:08:02.808Z,93212.63
2022-10-04T02:09:34.710Z,93206.72
2022-10-04T02:11:06.466Z,93210.22
2022-10-04T02:12:38.918Z,93211.00
2022-10-04T02:14:16.259Z,93207.25
2022-10-04T02:15:48.132Z,93216.09
2022-10-04T02:17:23.662Z,93211.81
2022-10-04T02:18:55.368Z,93217.97
2022-10-04T02:20:27.526Z,93209.00
2022-10-04T02:21:59.091Z,93212.50
2022-10-04T02:23:30.768Z,93215.97
2022-10-04T02:25:02.551Z,93216.31
2022-10-04T02:26:34.291Z,93215.97
2022-10-04T02:28:06.046Z,93216.78
2022-10-04T02:29:39.095Z,93212.50
2022-10-04T02:31:29.353Z,93220.28
2022-10-04T02:33:01.215Z,93216.19
2022-10-04T02:34:33.199Z,93219.69
2022-10-04T02:36:09.518Z,93213.50
2022-10-04T02:37:41.556Z,93215.31
2022-10-04T02:39:16.880Z,93214.22
2022-10-04T02:40:58.458Z,93216.91
2022-10-04T02:42:50.995Z,93221.50
2022-10-04T02:44:25.485Z,93223.38
2022-10-04T02:46:00.598Z,93224.19
2022-10-04T02:47:37.164Z,93216.59
2022-10-04T02:49:12.677Z,93214.69
2022-10-04T02:50:49.325Z,93212.50
2022-10-04T02:52:28.514Z,93217.88
2022-10-04T02:54:03.400Z,93222.97
2022-10-04T02:55:36.329Z,93225.66
2022-10-04T02:57:18.294Z,93228.06
2022-10-04T02:58:50.040Z,93231.53
2022-10-04T03:00:31.081Z,93231.53
2022-10-04T03:02:03.179Z,93236.41
2022-10-04T03:03:38.093Z,93241.78
2022-10-04T03:05:10.838Z,93244.47
2022-10-04T03:06:43.232Z,93242.88
2022-10-04T03:08:14.955Z,93237.50
2022-10-04T03:09:46.556Z,93247.44
2022-10-04T03:11:19.343Z,93248.03
2022-10-04T03:12:51.001Z,93246.47
2022-10-04T03:14:23.013Z,93249.44
2022-10-04T03:15:54.603Z,93249.25
2022-10-04T03:17:26.330Z,93249.25
2022-10-04T03:18:58.250Z,93249.53
2022-10-04T03:20:29.938Z,93249.03
2022-10-04T03:22:02.766Z,93257.88
2022-10-04T03:23:34.319Z,93253.59
2022-10-04T03:25:06.288Z,93245.53
2022-10-04T03:26:43.819Z,93246.94
2022-10-04T03:28:15.733Z,93244.44
2022-10-04T03:29:47.281Z,93247.44
2022-10-04T03:31:20.139Z,93256.09
2022-10-04T03:32:52.040Z,93258.78
2022-10-04T03:34:28.222Z,93253.41
2022-10-04T03:36:01.030Z,93246.16
2022-10-04T03:37:34.960Z,93248.56
2022-10-04T03:39:07.924Z,93257.88
2022-10-04T03:40:39.847Z,93259.69
2022-10-04T03:42:21.125Z,93258.31
2022-10-04T03:43:53.789Z,93259.59
2022-10-04T03:45:25.409Z,93258.78
2022-10-04T03:46:56.975Z,93257.22
2022-10-04T03:48:32.494Z,93265.56
2022-10-04T03:50:06.997Z,93263.19
2022-10-04T03:51:38.728Z,93259.41
2022-10-04T03:53:16.389Z,93262.38
2022-10-04T03:54:48.449Z,93264.28
2022-10-04T03:56:26.366Z,93273.72
2022-10-04T03:57:57.890Z,93262.97
2022-10-04T03:59:29.493Z,93269.94
2022-10-04T04:01:03.850Z,93266.44
2022-10-04T04:02:45.840Z,93273.44
2022-10-04T04:04:19.271Z,93269.94
2022-10-04T04:05:54.566Z,93269.44
2022-10-04T04:07:30.931Z,93271.31
2022-10-04T04:09:02.558Z,93268.63
2022-10-04T04:10:42.878Z,93268.06
2022-10-04T04:12:21.114Z,93275.22
2022-10-04T04:14:04.469Z,93276.31
2022-10-04T04:15:36.316Z,93273.94
2022-10-04T04:17:37.059Z,93278.78
2022-10-04T04:19:12.115Z,93273.44
2022-10-04T04:20:43.638Z,93282.28
2022-10-04T04:22:16.090Z,93282.28
2022-10-04T04:23:50.512Z,93286.56
2022-10-04T04:25:23.950Z,93276.63
2022-10-04T04:26:59.568Z,93280.91
2022-10-04T04:28:34.745Z,93277.41
2022-10-04T04:30:06.911Z,93274.72
2022-10-04T04:31:41.413Z,93273.94
2022-10-04T04:33:20.377Z,93274.22
2022-10-04T04:34:53.790Z,93279.59
2022-10-04T04:36:25.702Z,93273.72
2022-10-04T04:38:26.550Z,93270.53
2022-10-04T04:39:58.337Z,93276.50
2022-10-04T04:41:32.111Z,93279.78
2022-10-04T04:43:03.654Z,93280.06
2022-10-04T04:44:35.432Z,93280.34
2022-10-04T04:46:26.653Z,93280.94
2022-10-04T04:48:00.383Z,93278.88
2022-10-04T04:49:32.879Z,93282.63
2022-10-04T04:51:05.383Z,93289.09
2022-10-04T04:52:37.393Z,93290.47
2022-10-04T04:54:09.142Z,93289.47
2022-10-04T04:56:02.371Z,93283.91
2022-10-04T04:57:33.575Z,93290.16
2022-10-04T04:59:05.261Z,93297.34
2022-10-04T05:00:38.933Z,93287.09
2022-10-04T05:02:28.603Z,93299.22
2022-10-04T05:04:02.471Z,93294.44
2022-10-04T05:05:34.873Z,93295.00
2022-10-04T05:07:07.020Z,93293.72
2022-10-04T05:08:41.429Z,93300.66
2022-10-04T05:10:32.875Z,93304.16
2022-10-04T05:12:08.020Z,93305.16
2022-10-04T05:13:41.195Z,93303.28
2022-10-04T05:15:12.876Z,93305.91
2022-10-04T05:16:44.766Z,93304.50
2022-10-04T05:18:32.476Z,93307.97
2022-10-04T05:20:04.366Z,93310.09
2022-10-04T05:21:38.599Z,93309.28
2022-10-04T05:23:14.108Z,93313.28
2022-10-04T05:24:46.593Z,93314.59
2022-10-04T05:26:20.424Z,93311.78
2022-10-04T05:27:52.189Z,93312.59
2022-10-04T05:29:25.056Z,93325.22
2022-10-04T05:31:01.300Z,93327.13
2022-10-04T05:32:35.508Z,93324.44
2022-10-04T05:34:15.479Z,93329.81
2022-10-04T05:35:54.355Z,93331.41
2022-10-04T05:37:30.230Z,93328.13
2022-10-04T05:39:21.089Z,93326.94
2022-10-04T05:41:04.853Z,93328.28
2022-10-04T05:42:38.447Z,93323.75
2022-10-04T05:44:22.013Z,93326.66
2022-10-04T05:46:12.539Z,93328.97
2022-10-04T05:47:44.391Z,93334.06
2022-10-04T05:49:19.306Z,93333.13
2022-10-04T05:50:51.489Z,93339.69
2022-10-04T05:52:30.592Z,93334.78
2022-10-04T05:54:02.454Z,93342.22
2022-10-04T05:55:47.336Z,93335.97
2022-10-04T05:57:54.682Z,93344.97
2022-10-04T05:59:31.937Z,93349.03
2022-10-04T06:01:22.471Z,93347.19
2022-10-04T06:03:06.915Z,93352.81
2022-10-04T06:05:16.024Z,93350.84
2022-10-04T06:06:50.266Z,93349.25
2022-10-04T06:08:22.074Z,93356.75
2022-10-04T06:09:57.561Z,93353.00
2022-10-04T06:11:40.879Z,93366.38
2022-10-04T06:13:15.692Z,93366.44
2022-10-04T06:14:48.468Z,93364.25
2022-10-04T06:16:23.125Z,93362.69
2022-10-04T06:18:24.291Z,93369.97
2022-10-04T06:20:08.653Z,93373.09
2022-10-04T06:21:58.961Z,93369.69
2022-10-04T06:23:30.581Z,93380.25
2022-10-04T06:25:03.699Z,93377.66
2022-10-04T06:26:37.278Z,93379.88
2022-10-04T06:28:27.735Z,93380.03
2022-10-04T06:30:06.262Z,93383.31
2022-10-04T06:31:57.151Z,93381.84
2022-10-04T06:33:47.084Z,93389.09
2022-10-04T06:35:37.602Z,93387.31
2022-10-04T06:37:18.636Z,93385.00
2022-10-04T06:39:05.863Z,93384.25
2022-10-04T06:40:39.933Z,93383.81
2022-10-04T06:42:18.498Z,93384.16
2022-10-04T06:44:04.818Z,93394.34
2022-10-04T06:45:49.412Z,93392.50
2022-10-04T06:47:21.185Z,93386.41
2022-10-04T06:49:11.300Z,93388.03
2022-10-04T06:50:42.895Z,93390.41
2022-10-04T06:52:17.350Z,93388.25
2022-10-04T06:53:58.145Z,93391.19
2022-10-04T06:55:49.086Z,93389.28
2022-10-04T06:57:24.131Z,93392.31
2022-10-04T06:58:55.949Z,93395.50
2022-10-04T07:00:28.126Z,93398.22
2022-10-04T07:02:01.424Z,93390.09
2022-10-04T07:03:51.255Z,93392.44
2022-10-04T07:05:30.570Z,93392.91
2022-10-04T07:07:22.681Z,93392.09
2022-10-04T07:08:59.702Z,93397.69
2022-10-04T07:10:32.624Z,93392.28
2022-10-04T07:12:09.095Z,93393.47
2022-10-04T07:13:45.933Z,93394.28
2022-10-04T07:15:21.980Z,93398.78
2022-10-04T07:16:56.308Z,93395.78
2022-10-04T07:18:35.471Z,93398.94
2022-10-04T07:20:07.379Z,93401.97
2022-10-04T07:21:52.604Z,93397.84
2022-10-04T07:23:29.017Z,93396.72
2022-10-04T07:25:06.053Z,93396.91
2022-10-04T07:26:37.776Z,93397.88
2022-10-04T07:28:28.280Z,93397.72
2022-10-04T07:30:01.493Z,93399.00
2022-10-04T07:31:34.762Z,93402.34
2022-10-04T07:33:06.388Z,93404.94
2022-10-04T07:34:45.734Z,93409.34
2022-10-04T07:36:22.425Z,93412.53
2022-10-04T07:37:54.858Z,93411.75
2022-10-04T07:39:28.447Z,93416.34
2022-10-04T07:41:09.335Z,93412.53
2022-10-04T07:42:47.128Z,93412.53
2022-10-04T07:44:31.221Z,93404.25
2022-10-04T07:46:05.444Z,93413.50
2022-10-04T07:47:38.477Z,93419.03
2022-10-04T07:49:17.402Z,93416.63
2022-10-04T07:50:49.097Z,93419.22
2022-10-04T07:52:50.967Z,93419.53
2022-10-04T07:54:24.870Z,93423.22
2022-10-04T07:55:56.953Z,93426.72
2022-10-04T07:57:34.918Z,93419.72
2022-10-04T07:59:25.647Z,93415.25
2022-10-04T08:00:59.709Z,93425.91
2022-10-04T08:02:50.215Z,93415.44
2022-10-04T08:04:43.331Z,93418.16
2022-10-04T08:06:17.268Z,93422.00
2022-10-04T08:07:49.631Z,93423.13
2022-10-04T08:09:40.090Z,93427.59
2022-10-04T08:11:17.478Z,93413.63
2022-10-04T08:12:50.606Z,93413.78
2022-10-04T08:14:31.326Z,93413.56
2022-10-04T08:16:04.313Z,93409.03
2022-10-04T08:17:45.283Z,93409.97
2022-10-04T08:19:36.305Z,93411.56
2022-10-04T08:21:08.468Z,93406.78
2022-10-04T08:22:51.087Z,93407.44
2022-10-04T08:24:29.020Z,93411.91
2022-10-04T08:26:19.331Z,93412.75
2022-10-04T08:28:12.759Z,93416.72
2022-10-04T08:29:44.438Z,93409.44
2022-10-04T08:31:31.819Z,93409.13
2022-10-04T08:33:06.694Z,93409.47
2022-10-04T08:35:01.990Z,93416.31
2022-10-04T08:36:39.770Z,93428.22
2022-10-04T08:38:30.319Z,93416.44
2022-10-04T08:40:14.076Z,93418.66
2022-10-04T08:41:52.167Z,93421.03
2022-10-04T08:43:37.301Z,93420.72
2022-10-04T08:45:14.920Z,93425.31
2022-10-04T08:47:10.724Z,93421.66
2022-10-04T08:48:51.194Z,93428.63
2022-10-04T08:50:26.323Z,93429.41
2022-10-04T08:52:16.833Z,93425.13
2022-10-04T08:53:48.764Z,93425.44
2022-10-04T08:55:29.239Z,93435.81
2022-10-04T08:57:20.464Z,93427.22
2022-10-04T08:59:20.877Z,93435.00
2022-10-04T09:01:12.015Z,93433.75
2022-10-04T09:03:05.776Z,93432.47
2022-10-04T09:04:37.387Z,93425.19
2022-10-04T09:06:27.426Z,93428.53
2022-10-04T09:08:17.688Z,93422.97
2022-10-04T09:09:58.596Z,93427.13
2022-10-04T09:11:45.900Z,93428.88
2022-10-04T09:13:24.415Z,93435.56
2022-10-04T09:15:05.299Z,93433.97
2022-10-04T09:16:42.893Z,93435.09
2022-10-04T09:18:18.164Z,93431.75
2022-10-04T09:19:50.334Z,93431.25
2022-10-04T09:21:22.006Z,93424.94
2022-10-04T09:22:57.350Z,93424.28
2022-10-04T09:24:51.965Z,93424.63
2022-10-04T09:26:24.182Z,93431.44
2022-10-04T09:28:15.579Z,93435.41
2022-10-04T09:29:50.385Z,93437.47
2022-10-04T09:31:30.841Z,93437.66
2022-10-04T09:33:02.555Z,93430.94
2022-10-04T09:34:41.966Z,93433.06
2022-10-04T09:36:13.542Z,93434.16
2022-10-04T09:37:48.555Z,93424.13
2022-10-04T09:39:35.554Z,93432.09
2022-10-04T09:41:27.347Z,93425.38
2022-10-04T09:43:01.940Z,93426.50
2022-10-04T09:44:48.941Z,93431.44
2022-10-04T09:46:39.641Z,93432.53
2022-10-04T09:48:17.624Z,93432.72
2022-10-04T09:50:07.920Z,93432.72
2022-10-04T09:51:51.554Z,93435.75
2022-10-04T09:53:46.896Z,93434.78
2022-10-04T09:55:18.447Z,93435.25
2022-10-04T09:57:06.885Z,93436.53
2022-10-04T09:58:53.447Z,93431.13
2022-10-04T10:00:29.682Z,93434.28
2022-10-04T10:02:10.119Z,93427.31
2022-10-04T10:03:47.366Z,93441.16
2022-10-04T10:05:18.993Z,93446.38
2022-10-04T10:07:09.258Z,93443.03
2022-10-04T10:08:46.572Z,93444.34
2022-10-04T10:10:42.967Z,93442.41
2022-10-04T10:12:36.096Z,93444.94
2022-10-04T10:14:10.939Z,93448.75
2022-10-04T10:15:59.640Z,93443.66
2022-10-04T10:17:36.597Z,93451.03
2022-10-04T10:19:13.150Z,93440.50
2022-10-04T10:20:51.279Z,93437.13
2022-10-04T10:22:49.427Z,93438.09
2022-10-04T10:24:39.656Z,93431.06
2022-10-04T10:26:17.395Z,93426.09
2022-10-04T10:28:07.953Z,93436.22
2022-10-04T10:29:42.457Z,93437.69
2022-10-04T10:31:26.210Z,93435.53
2022-10-04T10:33:17.521Z,93433.84
2022-10-04T10:35:08.881Z,93429.00
2022-10-04T10:36:53.313Z,93433.31
2022-10-04T10:38:40.373Z,93426.91
2022-10-04T10:40:28.664Z,93428.75
2022-10-04T10:42:11.159Z,93432.81
2022-10-04T10:43:46.563Z,93430.91
2022-10-04T10:45:27.872Z,93431.44
2022-10-04T10:47:12.484Z,93434.84
2022-10-04T10:48:56.374Z,93435.91
2022-10-04T10:51:00.361Z,93430.41
2022-10-04T10:52:47.960Z,93431.47
2022-10-04T10:54:35.218Z,93433.97
2022-10-04T10:56:30.068Z,93423.25
2022-10-04T10:58:08.758Z,93418.75
2022-10-04T10:59:52.409Z,93419.88
2022-10-04T11:01:27.226Z,93421.25
2022-10-04T11:03:12.271Z,93413.66
2022-10-04T11:05:00.723Z,93424.44
2022-10-04T11:06:32.329Z,93422.72
2022-10-04T11:08:04.849Z,93424.66
2022-10-04T11:09:45.476Z,93424.56
2022-10-04T11:11:36.560Z,93427.38
2022-10-04T11:13:08.120Z,93422.63
2022-10-04T11:14:58.426Z,93422.31
2022-10-04T11:16:53.881Z,93423.09
2022-10-04T11:18:25.425Z,93426.19
2022-10-04T11:20:24.473Z,93430.47
2022-10-04T11:22:15.454Z,93432.13
2022-10-04T11:24:04.956Z,93434.28
2022-10-04T11:25:48.553Z,93431.75
2022-10-04T11:27:25.222Z,93433.03
2022-10-04T11:28:57.772Z,93439.34
2022-10-04T11:30:40.069Z,93433.25
2022-10-04T11:32:20.747Z,93439.03
2022-10-04T11:33:54.440Z,93437.44
2022-10-04T11:35:35.241Z,93437.75
2022-10-04T11:37:28.880Z,93438.31
2022-10-04T11:39:21.245Z,93444.41
2022-10-04T11:41:11.369Z,93438.19
2022-10-04T11:43:18.498Z,93447.06
2022-10-04T11:44:57.491Z,93437.91
2022-10-04T11:46:38.179Z,93441.88
2022-10-04T11:48:20.946Z,93440.09
2022-10-04T11:50:23.230Z,93449.16
2022-10-04T11:52:19.710Z,93440.53
2022-10-04T11:54:04.462Z,93440.88
2022-10-04T11:55:39.541Z,93442.34
2022-10-04T11:57:15.522Z,93441.56
2022-10-04T11:58:57.644Z,93449.03
2022-10-04T12:00:47.177Z,93437.81
2022-10-04T12:02:21.932Z,93441.94
2022-10-04T12:03:53.594Z,93438.31
2022-10-04T12:05:39.163Z,93439.72
2022-10-04T12:07:40.134Z,93435.78
2022-10-04T12:09:14.778Z,93429.78
2022-10-04T12:11:06.595Z,93430.25
2022-10-04T12:12:58.763Z,93439.38
2022-10-04T12:14:34.511Z,93437.69
2022-10-04T12:16:06.146Z,93434.50
2022-10-04T12:17:58.933Z,93438.50
2022-10-04T12:19:42.892Z,93436.25
2022-10-04T12:21:34.976Z,93446.97
2022-10-04T12:23:06.503Z,93442.66
2022-10-04T12:24:58.886Z,93438.03
2022-10-04T12:26:32.452Z,93433.63
2022-10-04T12:28:24.691Z,93435.69
2022-10-04T12:30:02.878Z,93433.19
2022-10-04T12:31:41.925Z,93429.84
2022-10-04T12:33:19.678Z,93434.06
2022-10-04T12:35:05.534Z,93433.72
2022-10-04T12:36:42.016Z,93427.59
2022-10-04T12:38:25.968Z,93430.00
2022-10-04T12:40:10.009Z,93429.09
2022-10-04T12:41:47.729Z,93436.44
2022-10-04T12:43:32.828Z,93427.69
2022-10-04T12:45:07.420Z,93445.03
2022-10-04T12:46:58.920Z,93443.44
2022-10-04T12:48:54.219Z,93439.09
2022-10-04T12:50:28.153Z,93437.00
2022-10-04T12:52:15.643Z,93431.47
2022-10-04T12:53:49.808Z,93429.00
2022-10-04T12:55:38.180Z,93429.25
2022-10-04T12:57:32.826Z,93433.22
2022-10-04T12:59:08.078Z,93435.78
2022-10-04T13:00:41.813Z,93432.97
2022-10-04T13:02:21.898Z,93434.53
2022-10-04T13:03:56.843Z,93426.28
2022-10-04T13:05:34.675Z,93432.09
2022-10-04T13:07:18.884Z,93435.34
2022-10-04T13:08:53.395Z,93435.75
2022-10-04T13:10:48.019Z,93439.81
2022-10-04T13:12:26.083Z,93432.66
2022-10-04T13:14:16.810Z,93428.22
2022-10-04T13:17:49.730Z,93423.75
2022-10-04T13:19:23.912Z,93418.53
2022-10-04T13:21:02.029Z,93423.06
2022-10-04T13:22:59.907Z,93421.78
2022-10-04T13:24:55.332Z,93417.06
2022-10-04T13:26:46.551Z,93424.47
2022-10-04T13:28:37.489Z,93417.34
2022-10-04T13:30:27.835Z,93426.75
2022-10-04T13:32:19.626Z,93430.50
2022-10-04T13:33:51.553Z,93436.13
2022-10-04T13:35:24.034Z,93440.78
2022-10-04T13:36:56.004Z,93437.88
2022-10-04T13:38:35.991Z,93435.72
2022-10-04T13:40:22.787Z,93432.34
2022-10-04T13:42:12.926Z,93436.34
2022-10-04T13:44:03.133Z,93435.06
2022-10-04T13:45:37.852Z,93434.59
2022-10-04T13:47:24.794Z,93434.06
2022-10-04T13:48:56.668Z,93434.84
2022-10-04T13:50:31.640Z,93442.31
2022-10-04T13:52:27.666Z,93437.56
2022-10-04T13:54:30.284Z,93433.59
2022-10-04T13:56:37.145Z,93433.03
2022-10-04T13:58:19.003Z,93433.81
2022-10-04T14:00:02.435Z,93433.94
2022-10-04T14:01:54.576Z,93437.09
2022-10-04T14:03:29.783Z,93442.66
2022-10-04T14:05:10.233Z,93447.53
2022-10-04T14:06:47.779Z,93452.66
2022-10-04T14:08:37.754Z,93449.78
2022-10-04T14:10:34.781Z,93457.16
2022-10-04T14:12:06.434Z,93451.38
2022-10-04T14:13:57.709Z,93456.28
2022-10-04T14:15:32.651Z,93456.84
2022-10-04T14:17:10.430Z,93450.84
2022-10-04T14:18:42.498Z,93459.22
2022-10-04T14:20:33.497Z,93460.59
2022-10-04T14:22:05.250Z,93459.34
2022-10-04T14:23:51.464Z,93451.88
2022-10-04T14:25:34.822Z,93459.91
2022-10-04T14:27:09.613Z,93454.56
2022-10-04T14:28:46.552Z,93462.28
2022-10-04T14:30:23.304Z,93458.66
2022-10-04T14:32:04.016Z,93456.16
2022-10-04T14:33:54.816Z,93459.31
2022-10-04T14:35:27.913Z,93468.91
2022-10-04T14:37:04.702Z,93466.28
2022-10-04T14:38:36.354Z,93471.00
2022-10-04T14:40:08.145Z,93464.66
2022-10-04T14:41:52.129Z,93473.13
2022-10-04T14:43:23.722Z,93479.25
2022-10-04T14:45:14.643Z,93477.75
2022-10-04T14:46:51.931Z,93481.22
2022-10-04T14:48:24.758Z,93476.78
2022-10-04T14:50:15.326Z,93489.78
2022-10-04T14:51:50.231Z,93487.59
2022-10-04T14:53:28.324Z,93491.19
2022-10-04T14:55:21.646Z,93496.31
2022-10-04T14:57:00.967Z,93495.28
2022-10-04T14:58:41.978Z,93498.19
2022-10-04T15:00:24.108Z,93503.97
2022-10-04T15:02:01.849Z,93506.75
2022-10-04T15:03:36.451Z,93510.31
2022-10-04T15:05:08.481Z,93509.69
2022-10-04T15:06:49.955Z,93505.75
2022-10-04T15:08:21.696Z,93513.81
2022-10-04T15:10:12.197Z,93513.19
2022-10-04T15:12:21.674Z,93505.59
2022-10-04T15:13:56.028Z,93510.06
2022-10-04T15:15:48.259Z,93504.47
2022-10-04T15:17:26.384Z,93509.44
2022-10-04T15:19:07.519Z,93518.72
2022-10-04T15:20:48.685Z,93518.59
2022-10-04T15:22:24.983Z,93513.66
2022-10-04T15:24:13.338Z,93518.00
2022-10-04T15:25:49.018Z,93521.34
2022-10-04T15:27:29.815Z,93524.06
2022-10-04T15:29:36.657Z,93525.81
2022-10-04T15:31:11.251Z,93534.75
2022-10-04T15:32:49.143Z,93526.31
2022-10-04T15:34:44.385Z,93533.81
2022-10-04T15:36:39.747Z,93533.97
2022-10-04T15:38:14.385Z,93532.25
2022-10-04T15:40:01.270Z,93532.56
2022-10-04T15:41:37.593Z,93531.91
2022-10-04T15:43:09.914Z,93532.88
2022-10-04T15:44:53.972Z,93535.09
2022-10-04T15:46:49.185Z,93537.47
2022-10-04T15:48:21.420Z,93536.53
2022-10-04T15:49:56.666Z,93538.44
2022-10-04T15:51:29.012Z,93540.19
2022-10-04T15:53:03.638Z,93541.28
2022-10-04T15:54:41.798Z,93538.72
2022-10-04T15:56:14.666Z,93541.69
2022-10-04T15:57:46.674Z,93547.72
2022-10-04T15:59:37.183Z,93540.69
2022-10-04T16:01:27.568Z,93544.47
2022-10-04T16:03:18.367Z,93545.59
2022-10-04T16:04:59.494Z,93558.69
2022-10-04T16:06:33.058Z,93554.50
2022-10-04T16:08:11.209Z,93554.78
2022-10-04T16:09:43.055Z,93553.97
2022-10-04T16:11:14.911Z,93558.03
2022-10-04T16:12:56.291Z,93572.78
2022-10-04T16:14:36.590Z,93563.53
2022-10-04T16:16:17.897Z,93563.50
2022-10-04T16:17:53.440Z,93566.31
2022-10-04T16:19:32.770Z,93567.56
2022-10-04T16:21:16.490Z,93562.28
2022-10-04T16:23:06.832Z,93570.03
2022-10-04T16:24:40.024Z,93575.66
2022-10-04T16:26:16.368Z,93577.50
2022-10-04T16:27:57.892Z,93581.91
2022-10-04T16:29:37.998Z,93583.19
2022-10-04T16:31:20.181Z,93576.31
2022-10-04T16:33:01.678Z,93584.53
2022-10-04T16:34:48.365Z,93582.88
2022-10-04T16:36:22.257Z,93584.88
2022-10-04T16:38:04.174Z,93579.19
2022-10-04T16:39:54.792Z,93591.38
2022-10-04T16:41:32.897Z,93588.31
2022-10-04T16:43:16.916Z,93590.50
2022-10-04T16:45:20.778Z,93593.59
2022-10-04T16:46:52.542Z,93604.22
2022-10-04T16:48:33.748Z,93596.13
2022-10-04T16:50:08.732Z,93602.25
2022-10-04T16:52:03.062Z,93602.84
2022-10-04T16:53:53.924Z,93605.25
2022-10-04T16:55:25.606Z,93618.81
2022-10-04T16:56:57.618Z,93606.44
2022-10-04T16:58:30.940Z,93606.44
2022-10-04T17:00:21.833Z,93614.34
2022-10-04T17:02:03.674Z,93619.41
2022-10-04T17:03:35.811Z,93622.75
2022-10-04T17:05:17.274Z,93624.44
2022-10-04T17:06:49.893Z,93632.81
2022-10-04T17:08:25.365Z,93632.81
2022-10-04T17:10:03.660Z,93632.00
2022-10-04T17:11:55.663Z,93641.72
2022-10-04T17:13:37.311Z,93639.81
2022-10-04T17:15:15.168Z,93641.91
2022-10-04T17:16:49.290Z,93645.41
2022-10-04T17:18:30.894Z,93643.00
2022-10-04T17:20:04.249Z,93646.50
2022-10-04T17:21:54.898Z,93654.09
2022-10-04T17:23:35.883Z,93652.78
2022-10-04T17:25:07.693Z,93656.41
2022-10-04T17:26:49.222Z,93650.22
2022-10-04T17:28:21.462Z,93656.41
2022-10-04T17:30:01.561Z,93653.19
2022-10-04T17:31:44.922Z,93665.09
2022-10-04T17:33:19.693Z,93662.97
2022-10-04T17:35:06.931Z,93662.97
2022-10-04T17:36:39.709Z,93665.09
2022-10-04T17:38:13.953Z,93661.66
2022-10-04T17:39:49.132Z,93669.06
2022-10-04T17:41:40.458Z,93670.47
2022-10-04T17:43:33.797Z,93662.97
2022-10-04T17:45:24.180Z,93664.38
2022-10-04T17:47:03.814Z,93671.16
2022-10-04T17:49:04.085Z,93678.19
2022-10-04T17:50:57.611Z,93676.69
2022-10-04T17:52:52.747Z,93681.66
2022-10-04T17:54:45.367Z,93688.25
2022-10-04T17:56:23.692Z,93685.34
2022-10-04T17:57:55.416Z,93692.91
2022-10-04T17:59:31.110Z,93688.41
2022-10-04T18:01:09.659Z,93695.19
2022-10-04T18:02:49.487Z,93691.00
2022-10-04T18:04:22.006Z,93692.97
2022-10-04T18:05:57.681Z,93686.88
2022-10-04T18:07:32.545Z,93685.34
2022-10-04T18:09:04.133Z,93692.09
2022-10-04T18:10:37.871Z,93693.50
2022-10-04T18:12:27.650Z,93691.41
2022-10-04T18:13:59.138Z,93694.66
2022-10-04T18:15:32.715Z,93700.06
2022-10-04T18:17:04.981Z,93701.94
2022-10-04T18:18:43.303Z,93706.53
2022-10-04T18:20:28.692Z,93702.84
2022-10-04T18:22:19.369Z,93706.69
2022-10-04T18:23:52.466Z,93704.66
2022-10-04T18:25:26.292Z,93704.94
2022-10-04T18:27:01.339Z,93714.09
2022-10-04T18:28:34.957Z,93705.22
2022-10-04T18:30:13.747Z,93710.91
2022-10-04T18:31:45.558Z,93713.69
2022-10-04T18:33:30.162Z,93722.59
2022-10-04T18:35:22.677Z,93725.88
2022-10-04T18:36:54.310Z,93729.16
2022-10-04T18:38:29.416Z,93725.44
2022-10-04T18:40:17.712Z,93728.50
2022-10-04T18:42:00.532Z,93730.44
2022-10-04T18:43:33.465Z,93731.59
2022-10-04T18:45:17.856Z,93731.66
2022-10-04T18:46:51.180Z,93729.25
2022-10-04T18:48:23.154Z,93731.13
2022-10-04T18:49:54.987Z,93737.53
2022-10-04T18:51:28.423Z,93731.09
2022-10-04T18:53:15.759Z,93738.63
2022-10-04T18:54:48.576Z,93729.56
2022-10-04T18:56:20.109Z,93740.94
2022-10-04T18:58:34.276Z,93739.94
2022-10-04T19:00:31.195Z,93739.97
2022-10-04T19:02:08.003Z,93744.53
2022-10-04T19:03:57.423Z,93751.59
2022-10-04T19:05:35.209Z,93747.81
2022-10-04T19:07:11.315Z,93752.63
2022-10-04T19:08:43.021Z,93754.75
2022-10-04T19:10:17.930Z,93756.06
2022-10-04T19:11:58.546Z,93751.25
2022-10-04T19:13:33.542Z,93756.97
2022-10-04T19:15:09.802Z,93753.53
2022-10-04T19:16:47.840Z,93752.44
2022-10-04T19:18:36.442Z,93751.66
2022-10-04T19:20:18.693Z,93751.72
2022-10-04T19:21:55.259Z,93757.41
2022-10-04T19:23:32.644Z,93759.84
2022-10-04T19:25:13.480Z,93760.72
2022-10-04T19:26:46.840Z,93762.16
2022-10-04T19:28:26.976Z,93755.75
2022-10-04T19:30:01.608Z,93757.69
2022-10-04T19:31:33.283Z,93768.25
2022-10-04T19:33:17.297Z,93760.75
2022-10-04T19:34:49.243Z,93765.31
2022-10-04T19:36:23.379Z,93771.53
2022-10-04T19:38:13.728Z,93777.19
2022-10-04T19:40:04.432Z,93772.06
2022-10-04T19:41:38.902Z,93769.63
2022-10-04T19:43:11.369Z,93770.63
2022-10-04T19:45:01.341Z,93772.50